Time;durP1;ratioP1;P1;durP2;ratioP2;P2;SDS_P1;SDS_P2;PMS_P1;PMS_P2;Temp;Humidity;BMP_temperature;BMP_pressure;BME280_temperature;BME280_humidity;BME280_pressure;Samples;Min_cycle;Max_cycle;Signal;HPM_P1;HPM_P2
2022/09/12 00:01:31;;;;;;;99.30;49.93;;;13.70;99.90;;;;;;5009373;28;20389;-73
2022/09/12 00:03:59;;;;;;;106.17;49.47;;;13.70;99.90;;;;;;5026234;28;20388;-74
2022/09/12 00:06:31;;;;;;;96.13;48.47;;;13.70;99.90;;;;;;5027344;28;20419;-72
2022/09/12 00:09:00;;;;;;;100.65;49.05;;;13.60;99.90;;;;;;5026993;28;20408;-73
2022/09/12 00:11:27;;;;;;;100.60;47.87;;;13.60;99.90;;;;;;5027426;28;20384;-73
2022/09/12 00:13:58;;;;;;;98.95;49.05;;;13.60;99.90;;;;;;5029784;28;20480;-74
2022/09/12 00:16:26;;;;;;;99.82;48.10;;;13.60;99.90;;;;;;5028756;28;20385;-74
2022/09/12 00:18:52;;;;;;;89.35;45.80;;;13.60;99.90;;;;;;5028679;28;20385;-74
2022/09/12 00:21:18;;;;;;;90.28;46.40;;;13.60;99.90;;;;;;5028164;28;20476;-74
2022/09/12 00:23:45;;;;;;;86.50;45.28;;;13.50;99.90;;;;;;5028854;28;20396;-72
2022/09/12 00:26:10;;;;;;;92.53;47.80;;;13.50;99.90;;;;;;5030107;28;20384;-72
2022/09/12 00:28:38;;;;;;;97.50;46.75;;;13.70;99.90;;;;;;5030394;28;20443;-73
2022/09/12 00:31:07;;;;;;;89.50;44.78;;;13.80;99.90;;;;;;5030230;28;20396;-73
2022/09/12 00:33:33;;;;;;;91.68;46.33;;;13.70;99.90;;;;;;5030654;28;20389;-71
2022/09/12 00:36:02;;;;;;;94.20;46.55;;;13.60;99.90;;;;;;5026959;28;20389;-72
2022/09/12 00:38:27;;;;;;;84.45;44.58;;;13.50;99.90;;;;;;5026652;28;20415;-74
2022/09/12 00:40:53;;;;;;;88.70;46.72;;;13.50;99.90;;;;;;5026640;28;20393;-73
2022/09/12 00:43:39;;;;;;;90.00;45.10;;;13.40;99.90;;;;;;5027342;28;20389;-72
2022/09/12 00:46:31;;;;;;;88.40;45.35;;;13.40;99.90;;;;;;5027925;28;20384;-74
2022/09/12 00:49:14;;;;;;;87.70;45.73;;;13.50;99.90;;;;;;5027283;28;20400;-72
2022/09/12 00:51:45;;;;;;;85.03;43.13;;;13.50;99.90;;;;;;5028099;28;20381;-74
2022/09/12 00:54:15;;;;;;;85.72;44.75;;;13.40;99.90;;;;;;5026696;28;20413;-72
2022/09/12 00:56:44;;;;;;;89.32;45.10;;;13.40;99.90;;;;;;5008906;28;20412;-73
2022/09/12 00:59:16;;;;;;;78.90;42.80;;;13.30;99.90;;;;;;5025087;28;20404;-72
2022/09/12 01:01:45;;;;;;;80.53;42.75;;;13.30;99.90;;;;;;5023795;28;20450;-74
2022/09/12 01:04:12;;;;;;;83.80;42.22;;;13.20;99.90;;;;;;5022582;28;20397;-72
2022/09/12 01:06:42;;;;;;;95.55;46.20;;;13.20;99.90;;;;;;5024660;28;20832;-73
2022/09/12 01:09:12;;;;;;;87.95;44.50;;;13.20;99.90;;;;;;5030135;28;20425;-73
2022/09/12 01:11:39;;;;;;;88.22;44.45;;;13.10;99.90;;;;;;5030693;28;20419;-71
2022/09/12 01:14:05;;;;;;;89.97;45.28;;;13.10;99.90;;;;;;5029975;28;20396;-72
2022/09/12 01:16:34;;;;;;;90.40;44.70;;;13.10;99.90;;;;;;5026771;28;20460;-73
2022/09/12 01:19:37;;;;;;;92.90;44.92;;;13.00;99.90;;;;;;5027253;28;20773;-73
2022/09/12 01:22:21;;;;;;;93.18;44.72;;;13.00;99.90;;;;;;5027514;28;20391;-74
2022/09/12 01:25:09;;;;;;;92.88;44.30;;;13.00;99.90;;;;;;5026814;28;20424;-74
2022/09/12 01:28:07;;;;;;;85.68;43.05;;;12.90;99.90;;;;;;5026578;28;20439;-73
2022/09/12 01:31:00;;;;;;;92.57;43.88;;;13.10;99.90;;;;;;5025139;28;20377;-71
2022/09/12 01:33:47;;;;;;;88.32;43.17;;;13.20;99.90;;;;;;5025811;28;20384;-72
2022/09/12 01:36:58;;;;;;;86.30;41.53;;;13.20;99.90;;;;;;5026354;28;20480;-72
2022/09/12 01:39:35;;;;;;;83.93;41.95;;;13.10;99.90;;;;;;4988677;28;20742;-74
2022/09/12 01:42:23;;;;;;;89.38;43.60;;;13.00;99.90;;;;;;5026915;28;20742;-73
2022/09/12 01:45:02;;;;;;;89.28;43.65;;;13.10;99.90;;;;;;5008459;28;20396;-72
2022/09/12 01:47:44;;;;;;;97.22;42.80;;;13.00;99.90;;;;;;5027342;28;20401;-74
2022/09/12 01:50:16;;;;;;;86.03;41.85;;;12.90;99.90;;;;;;5006094;28;20411;-74
2022/09/12 01:52:49;;;;;;;84.95;42.83;;;12.90;99.90;;;;;;5024645;28;20385;-74
2022/09/12 01:55:26;;;;;;;85.65;42.85;;;12.90;99.90;;;;;;5023110;28;20444;-73
2022/09/12 01:58:02;;;;;;;86.17;43.20;;;12.90;99.90;;;;;;5021296;28;20403;-75
2022/09/12 02:00:27;;;;;;;78.25;39.35;;;13.10;99.90;;;;;;5022433;28;20399;-72
2022/09/12 02:03:14;;;;;;;88.10;42.17;;;13.00;99.90;;;;;;5007200;28;20460;-72
2022/09/12 02:05:45;;;;;;;79.38;40.65;;;12.90;99.90;;;;;;5025156;28;20408;-73
2022/09/12 02:08:29;;;;;;;78.93;40.60;;;12.90;99.90;;;;;;5026744;28;20463;-73
2022/09/12 02:11:00;;;;;;;75.70;39.20;;;12.90;99.90;;;;;;5025067;28;20468;-73
2022/09/12 02:13:50;;;;;;;81.63;39.97;;;12.90;99.90;;;;;;5024772;28;20397;-72
2022/09/12 02:16:23;;;;;;;84.78;39.50;;;12.80;99.90;;;;;;5023643;28;20385;-72
2022/09/12 02:18:54;;;;;;;78.68;39.88;;;12.90;99.90;;;;;;5023817;28;20389;-73
2022/09/12 02:21:24;;;;;;;83.88;40.55;;;12.80;99.90;;;;;;5024457;28;20381;-73
2022/09/12 02:23:56;;;;;;;80.18;40.00;;;12.90;99.90;;;;;;5023648;28;20428;-72
2022/09/12 02:26:32;;;;;;;77.55;38.40;;;12.90;99.90;;;;;;5023788;28;20429;-71
2022/09/12 02:28:57;;;;;;;71.80;37.77;;;12.90;99.90;;;;;;5005404;28;20524;-74
2022/09/12 02:31:52;;;;;;;70.03;36.77;;;12.90;99.90;;;;;;5023308;28;20437;-74
2022/09/12 02:34:32;;;;;;;76.47;38.88;;;12.90;99.90;;;;;;5022194;28;20385;-73
2022/09/12 02:37:30;;;;;;;76.50;37.17;;;12.90;99.90;;;;;;5023333;28;20380;-72
2022/09/12 02:39:56;;;;;;;79.13;38.40;;;12.90;99.90;;;;;;4936668;28;20421;-74
2022/09/12 02:42:22;;;;;;;75.28;35.72;;;13.00;99.90;;;;;;5024240;28;20412;-73
2022/09/12 02:44:49;;;;;;;68.50;35.88;;;13.00;99.90;;;;;;5024922;28;20396;-74
2022/09/12 02:47:24;;;;;;;68.70;36.20;;;13.10;99.90;;;;;;5025064;28;20412;-73
2022/09/12 02:49:50;;;;;;;71.05;37.33;;;13.10;99.90;;;;;;5024855;28;20392;-75
2022/09/12 02:52:16;;;;;;;73.90;37.67;;;13.00;99.90;;;;;;5025097;28;20389;-74
2022/09/12 02:54:43;;;;;;;65.90;35.58;;;13.00;99.90;;;;;;5025572;28;20411;-75
2022/09/12 02:57:19;;;;;;;69.07;36.10;;;13.00;99.90;;;;;;5024947;28;20381;-73
2022/09/12 02:59:45;;;;;;;67.47;37.43;;;13.00;99.90;;;;;;5025119;28;20391;-75
2022/09/12 03:02:26;;;;;;;66.07;35.55;;;13.00;99.90;;;;;;5024766;28;20441;-74
2022/09/12 03:05:11;;;;;;;64.45;34.03;;;13.00;99.90;;;;;;5008379;28;20385;-74
2022/09/12 03:07:55;;;;;;;72.05;35.95;;;12.90;99.90;;;;;;5025267;28;20769;-74
2022/09/12 03:10:39;;;;;;;69.95;36.33;;;12.90;99.90;;;;;;5023137;28;20385;-72
2022/09/12 03:13:21;;;;;;;74.75;37.20;;;12.90;99.90;;;;;;5022552;28;20389;-71
2022/09/12 03:16:28;;;;;;;74.07;37.03;;;12.90;99.90;;;;;;5022178;28;20381;-72
2022/09/12 03:19:33;;;;;;;67.15;36.03;;;12.90;99.90;;;;;;4996026;28;20393;-74
2022/09/12 03:22:01;;;;;;;67.25;35.75;;;12.90;99.90;;;;;;5023665;28;20391;-74
2022/09/12 03:24:36;;;;;;;82.33;41.43;;;12.80;99.90;;;;;;5024475;28;20474;-73
2022/09/12 03:27:22;;;;;;;75.63;38.25;;;12.80;99.90;;;;;;5021889;28;20392;-74
2022/09/12 03:29:49;;;;;;;79.22;40.58;;;12.80;99.90;;;;;;5021543;28;20890;-74
2022/09/12 03:32:15;;;;;;;78.57;38.28;;;12.80;99.90;;;;;;5022498;28;20393;-72
2022/09/12 03:34:40;;;;;;;72.40;37.00;;;12.80;99.90;;;;;;5024258;28;20385;-74
2022/09/12 03:37:06;;;;;;;83.25;43.28;;;12.80;99.90;;;;;;5024794;28;20395;-74
2022/09/12 03:39:32;;;;;;;81.10;46.25;;;12.80;99.90;;;;;;5024114;28;20385;-74
2022/09/12 03:41:57;;;;;;;87.97;47.28;;;12.90;99.90;;;;;;5025726;28;20385;-73
2022/09/12 03:44:23;;;;;;;92.53;51.63;;;12.90;99.90;;;;;;5024398;28;20395;-72
2022/09/12 03:46:49;;;;;;;74.32;44.42;;;12.90;99.90;;;;;;5023933;28;20387;-72
2022/09/12 03:49:15;;;;;;;67.63;38.50;;;12.90;99.90;;;;;;5023738;28;20790;-73
2022/09/12 03:51:41;;;;;;;87.57;50.35;;;12.90;99.90;;;;;;5007702;28;20388;-74
2022/09/12 03:54:07;;;;;;;91.10;52.03;;;12.90;99.90;;;;;;5022157;28;20400;-74
2022/09/12 03:56:34;;;;;;;87.32;51.50;;;12.90;99.90;;;;;;5011819;28;20391;-71
2022/09/12 03:58:59;;;;;;;86.00;46.70;;;12.90;99.90;;;;;;5012065;28;20815;-74
2022/09/12 04:01:25;;;;;;;67.47;39.07;;;12.90;99.90;;;;;;5012418;28;20419;-72
2022/09/12 04:03:51;;;;;;;75.07;43.70;;;12.90;99.90;;;;;;5013538;28;20505;-72
2022/09/12 04:06:19;;;;;;;77.07;42.97;;;12.90;99.90;;;;;;5012812;28;20385;-72
2022/09/12 04:08:50;;;;;;;119.22;69.38;;;12.90;99.90;;;;;;5014784;28;20409;-74
2022/09/12 04:11:17;;;;;;;78.93;45.35;;;12.90;99.90;;;;;;5016067;28;20385;-72
2022/09/12 04:13:44;;;;;;;87.93;50.73;;;12.90;99.90;;;;;;4998543;28;20389;-73
2022/09/12 04:16:11;;;;;;;82.20;46.53;;;13.00;99.90;;;;;;5012464;28;20422;-72
2022/09/12 04:18:37;;;;;;;71.50;42.75;;;13.00;99.90;;;;;;5011941;28;20451;-72
2022/09/12 04:21:04;;;;;;;82.13;50.85;;;13.00;99.90;;;;;;5022501;28;20401;-72
2022/09/12 04:23:30;;;;;;;80.68;43.78;;;13.00;99.90;;;;;;5033233;28;20397;-71
2022/09/12 04:25:57;;;;;;;73.78;43.45;;;13.00;99.90;;;;;;5031662;28;20419;-72
2022/09/12 04:28:24;;;;;;;65.78;39.85;;;13.00;99.90;;;;;;5017641;28;20848;-71
2022/09/12 04:30:50;;;;;;;65.65;41.30;;;13.00;99.90;;;;;;5015069;28;20765;-71
2022/09/12 04:33:16;;;;;;;53.90;31.60;;;13.10;99.90;;;;;;4996957;28;20475;-72
2022/09/12 04:35:41;;;;;;;65.80;41.83;;;13.00;99.90;;;;;;5014913;28;20711;-72
2022/09/12 04:38:08;;;;;;;55.03;33.73;;;13.00;99.90;;;;;;5015371;28;20396;-74
2022/09/12 04:40:34;;;;;;;73.53;44.53;;;13.10;99.90;;;;;;5014921;28;20454;-72
2022/09/12 04:43:00;;;;;;;114.63;71.70;;;13.10;99.90;;;;;;5014995;28;20384;-72
2022/09/12 04:45:25;;;;;;;96.40;59.10;;;13.10;99.90;;;;;;5014812;28;20835;-72
2022/09/12 04:47:51;;;;;;;63.20;36.83;;;13.10;99.90;;;;;;4997502;28;20773;-74
2022/09/12 04:50:17;;;;;;;54.55;33.03;;;13.10;99.90;;;;;;5022141;28;20396;-73
2022/09/12 04:52:47;;;;;;;68.22;41.65;;;13.10;99.90;;;;;;5021798;28;20420;-73
2022/09/12 04:55:13;;;;;;;50.92;30.42;;;13.10;99.90;;;;;;5017564;28;20417;-73
2022/09/12 04:57:38;;;;;;;51.25;32.80;;;13.20;99.90;;;;;;5017067;28;20753;-73
2022/09/12 05:00:05;;;;;;;67.05;39.58;;;13.20;99.90;;;;;;5015955;28;20743;-73
2022/09/12 05:02:32;;;;;;;52.95;32.35;;;13.20;99.90;;;;;;4997344;28;20381;-74
2022/09/12 05:04:58;;;;;;;58.55;34.92;;;13.30;99.90;;;;;;4997726;28;20401;-73
2022/09/12 05:07:23;;;;;;;65.47;39.70;;;13.30;99.90;;;;;;5023542;28;20416;-73
2022/09/12 05:09:49;;;;;;;55.90;34.78;;;13.30;99.90;;;;;;5027273;28;20405;-73
2022/09/12 05:12:15;;;;;;;45.73;27.90;;;13.40;99.90;;;;;;5027316;28;20409;-73
2022/09/12 05:14:40;;;;;;;128.85;85.65;;;13.40;99.90;;;;;;5028510;28;20381;-74
2022/09/12 05:17:06;;;;;;;87.67;57.60;;;13.50;99.90;;;;;;5029132;28;20404;-73
2022/09/12 05:19:31;;;;;;;81.90;52.67;;;13.50;99.90;;;;;;5029538;28;20381;-73
2022/09/12 05:21:58;;;;;;;78.23;48.80;;;13.60;99.90;;;;;;5030333;28;20391;-72
2022/09/12 05:24:24;;;;;;;64.15;42.20;;;13.70;99.90;;;;;;5029437;28;20391;-72
2022/09/12 05:26:49;;;;;;;59.50;39.42;;;13.80;99.90;;;;;;5029039;28;20453;-73
2022/09/12 05:29:15;;;;;;;56.88;39.03;;;13.90;99.90;;;;;;5029977;28;20439;-72
2022/09/12 05:31:41;;;;;;;53.47;33.60;;;13.90;99.90;;;;;;5026760;28;20385;-72
2022/09/12 05:34:08;;;;;;;44.38;30.40;;;14.00;99.90;;;;;;5024875;28;20385;-72
2022/09/12 05:36:36;;;;;;;46.08;29.40;;;14.00;99.90;;;;;;5025782;28;20407;-73
2022/09/12 05:39:03;;;;;;;56.38;37.20;;;14.10;99.90;;;;;;5004701;28;20393;-73
2022/09/12 05:41:31;;;;;;;39.47;25.67;;;14.20;99.90;;;;;;5024338;28;20397;-71
2022/09/12 05:43:59;;;;;;;57.42;36.88;;;14.30;99.90;;;;;;5024713;28;20387;-73
2022/09/12 05:46:29;;;;;;;46.13;29.80;;;14.40;99.90;;;;;;5017257;28;20393;-74
2022/09/12 05:48:57;;;;;;;42.67;27.65;;;14.60;99.90;;;;;;5019688;28;20442;-73
2022/09/12 05:51:27;;;;;;;44.83;29.35;;;14.80;99.90;;;;;;5019643;28;20802;-72
2022/09/12 05:53:56;;;;;;;68.82;48.55;;;14.90;99.90;;;;;;5019934;28;20704;-72
2022/09/12 05:56:25;;;;;;;55.20;40.28;;;15.10;99.90;;;;;;5022830;28;20454;-73
2022/09/12 05:58:58;;;;;;;30.77;21.40;;;15.20;99.90;;;;;;5022646;28;20381;-72
2022/09/12 06:01:26;;;;;;;40.13;24.80;;;15.30;99.90;;;;;;5009354;28;20389;-72
2022/09/12 06:03:54;;;;;;;33.92;22.75;;;15.40;99.90;;;;;;5039294;28;20451;-72
2022/09/12 06:06:21;;;;;;;36.33;22.05;;;15.40;99.90;;;;;;5035207;28;20395;-72
2022/09/12 06:08:50;;;;;;;28.15;19.52;;;15.50;99.90;;;;;;5038072;28;20414;-72
2022/09/12 06:11:21;;;;;;;28.20;17.85;;;15.60;99.90;;;;;;5032859;28;20391;-72
2022/09/12 06:13:58;;;;;;;33.78;21.50;;;15.70;99.40;;;;;;5044458;28;20375;-73
2022/09/12 06:16:30;;;;;;;34.00;22.65;;;15.80;98.90;;;;;;5043701;28;20441;-73
2022/09/12 06:18:58;;;;;;;31.15;20.13;;;16.00;96.00;;;;;;5040359;28;20868;-74
2022/09/12 06:21:25;;;;;;;29.35;18.98;;;16.00;93.90;;;;;;5023654;28;20398;-72
2022/09/12 06:23:53;;;;;;;29.30;18.17;;;16.10;93.20;;;;;;5040217;28;20395;-73
2022/09/12 06:26:24;;;;;;;26.00;18.50;;;16.10;91.70;;;;;;5019585;28;20911;-74
2022/09/12 06:28:51;;;;;;;26.55;17.25;;;16.20;90.90;;;;;;5018325;28;20421;-73
2022/09/12 06:31:22;;;;;;;25.40;19.03;;;16.30;89.00;;;;;;5020346;28;20435;-73
2022/09/12 06:33:50;;;;;;;32.55;19.95;;;16.40;86.80;;;;;;4998606;28;20391;-72
2022/09/12 06:36:17;;;;;;;24.77;16.92;;;16.40;85.70;;;;;;5018381;28;20428;-72
2022/09/12 06:38:45;;;;;;;31.42;20.77;;;16.60;85.40;;;;;;5021225;28;20385;-72
2022/09/12 06:41:12;;;;;;;32.78;20.77;;;16.70;82.50;;;;;;5028985;28;20460;-71
2022/09/12 06:43:39;;;;;;;26.35;16.70;;;16.80;80.40;;;;;;5028126;28;20423;-73
2022/09/12 06:46:06;;;;;;;32.45;20.67;;;17.00;78.50;;;;;;5019754;28;20874;-72
2022/09/12 06:48:32;;;;;;;30.33;19.25;;;17.10;76.80;;;;;;5019976;28;20441;-72
2022/09/12 06:51:06;;;;;;;25.45;15.68;;;17.20;78.20;;;;;;5037052;28;20807;-73
2022/09/12 06:53:33;;;;;;;22.10;15.18;;;17.40;69.80;;;;;;5028812;28;20403;-73
2022/09/12 06:56:00;;;;;;;24.20;14.73;;;17.40;68.70;;;;;;5017149;28;20483;-73
2022/09/12 06:58:27;;;;;;;24.63;15.32;;;17.40;67.50;;;;;;5028443;28;20485;-73
2022/09/12 07:01:04;;;;;;;25.02;15.85;;;17.50;66.10;;;;;;4980125;28;20472;-73
2022/09/12 07:03:31;;;;;;;29.77;15.35;;;17.60;67.70;;;;;;5026390;28;20400;-74
2022/09/12 07:05:57;;;;;;;22.00;15.35;;;17.70;63.40;;;;;;5013616;28;20407;-71
2022/09/12 07:08:23;;;;;;;27.40;15.20;;;17.70;62.10;;;;;;5011863;28;20498;-73
2022/09/12 07:10:48;;;;;;;24.30;16.40;;;17.80;61.80;;;;;;5000043;28;20399;-72
2022/09/12 07:13:14;;;;;;;27.92;16.05;;;17.80;61.80;;;;;;5032927;28;20390;-72
2022/09/12 07:15:39;;;;;;;23.10;14.82;;;17.90;60.90;;;;;;5030165;28;20400;-74
2022/09/12 07:18:05;;;;;;;23.70;15.17;;;17.90;58.60;;;;;;5011927;28;20789;-72
2022/09/12 07:20:36;;;;;;;21.70;14.67;;;17.90;59.60;;;;;;5012598;28;20896;-73
2022/09/12 07:23:01;;;;;;;23.10;16.67;;;17.90;58.70;;;;;;5030106;28;20375;-73
2022/09/12 07:25:27;;;;;;;22.20;14.20;;;18.00;59.50;;;;;;5017773;28;20435;-73
2022/09/12 07:27:54;;;;;;;21.40;15.10;;;18.00;59.20;;;;;;5010864;28;20412;-71
2022/09/12 07:30:19;;;;;;;22.13;14.60;;;18.20;58.40;;;;;;5016903;28;20397;-73
2022/09/12 07:32:45;;;;;;;25.47;16.37;;;18.20;58.60;;;;;;5020279;28;20417;-74
2022/09/12 07:35:11;;;;;;;25.80;15.32;;;18.20;58.20;;;;;;5011289;28;20424;-73
2022/09/12 07:37:36;;;;;;;23.45;16.05;;;18.30;58.40;;;;;;5029411;28;20389;-72
2022/09/12 07:40:02;;;;;;;21.97;15.50;;;18.40;57.60;;;;;;5032029;28;20391;-71
2022/09/12 07:42:28;;;;;;;22.10;15.07;;;18.50;55.20;;;;;;5014241;28;20405;-72
2022/09/12 07:44:53;;;;;;;24.93;15.97;;;18.50;56.10;;;;;;4991187;28;20880;-75
2022/09/12 07:47:19;;;;;;;23.77;15.63;;;18.60;55.30;;;;;;4991698;28;20405;-75
2022/09/12 07:49:44;;;;;;;26.57;17.73;;;18.70;54.60;;;;;;4990948;28;20402;-74
2022/09/12 07:52:10;;;;;;;28.63;16.63;;;18.80;53.70;;;;;;4998577;28;20412;-76
2022/09/12 07:54:36;;;;;;;25.33;15.68;;;18.90;52.90;;;;;;5009836;28;20393;-72
2022/09/12 07:57:01;;;;;;;26.55;15.00;;;19.00;52.50;;;;;;5012909;28;20463;-73
2022/09/12 07:59:27;;;;;;;21.93;14.90;;;19.10;53.40;;;;;;5029957;28;20904;-72
2022/09/12 08:01:53;;;;;;;22.00;15.47;;;19.30;51.10;;;;;;5031872;28;20473;-72
2022/09/12 08:04:18;;;;;;;29.55;18.65;;;19.20;52.10;;;;;;5033167;28;20383;-73
2022/09/12 08:06:44;;;;;;;26.27;17.40;;;19.30;51.90;;;;;;5016441;28;20482;-73
2022/09/12 08:09:11;;;;;;;23.15;15.75;;;19.20;51.80;;;;;;5039084;28;20439;-73
2022/09/12 08:11:37;;;;;;;22.85;16.00;;;19.20;50.50;;;;;;5036732;28;20387;-72
2022/09/12 08:14:04;;;;;;;23.67;14.50;;;19.20;50.90;;;;;;5020206;28;20865;-72
2022/09/12 08:16:31;;;;;;;24.52;16.50;;;19.20;52.30;;;;;;5019104;28;20397;-73
2022/09/12 08:18:58;;;;;;;24.43;15.80;;;19.20;51.10;;;;;;5019694;28;20446;-72
2022/09/12 08:21:26;;;;;;;25.27;16.25;;;19.00;52.60;;;;;;5019528;28;20404;-72
2022/09/12 08:23:56;;;;;;;24.25;16.48;;;19.00;52.50;;;;;;5014587;28;20829;-73
2022/09/12 08:26:23;;;;;;;24.40;15.80;;;19.10;52.40;;;;;;5013375;28;20408;-71
2022/09/12 08:28:49;;;;;;;25.30;16.27;;;19.10;53.00;;;;;;5013752;28;20412;-74
2022/09/12 08:31:18;;;;;;;26.13;17.23;;;19.30;51.20;;;;;;5012586;28;20397;-72
2022/09/12 08:33:44;;;;;;;22.52;15.13;;;19.40;50.00;;;;;;5012882;28;20396;-72
2022/09/12 08:36:14;;;;;;;25.77;16.13;;;19.50;50.30;;;;;;5014985;28;20822;-72
2022/09/12 08:38:42;;;;;;;23.50;15.57;;;19.60;49.90;;;;;;5013209;28;20412;-72
2022/09/12 08:41:17;;;;;;;25.05;16.42;;;19.70;49.10;;;;;;5013173;28;20416;-73
2022/09/12 08:44:21;;;;;;;25.60;15.57;;;19.90;49.20;;;;;;5027297;28;20493;-72
2022/09/12 08:46:56;;;;;;;24.15;16.25;;;20.20;46.30;;;;;;5033985;28;20390;-71
2022/09/12 08:49:27;;;;;;;25.65;16.02;;;20.60;43.60;;;;;;5026733;28;20404;-73
2022/09/12 08:51:54;;;;;;;25.10;15.60;;;21.00;41.20;;;;;;5014620;28;20389;-71
2022/09/12 08:54:25;;;;;;;23.73;15.13;;;21.30;38.40;;;;;;5013453;28;20455;-72
2022/09/12 08:56:56;;;;;;;20.77;13.98;;;21.30;38.50;;;;;;5016041;28;20517;-72
2022/09/12 08:59:22;;;;;;;28.00;15.88;;;21.50;38.50;;;;;;5012474;28;20769;-71
2022/09/12 09:01:54;;;;;;;18.60;13.90;;;21.60;38.30;;;;;;5010284;28;20396;-71
2022/09/12 09:04:32;;;;;;;22.73;15.23;;;21.70;37.10;;;;;;5011819;28;20384;-71
2022/09/12 09:07:17;;;;;;;22.00;13.95;;;21.60;36.90;;;;;;5012225;28;20408;-72
2022/09/12 09:09:44;;;;;;;19.70;13.90;;;21.40;37.90;;;;;;5020383;28;20401;-72
2022/09/12 09:12:42;;;;;;;22.27;14.97;;;21.30;38.80;;;;;;5016910;28;20431;-71
2022/09/12 09:15:11;;;;;;;18.02;12.98;;;21.10;37.90;;;;;;5015656;28;20909;-72
2022/09/12 09:17:43;;;;;;;20.73;14.60;;;21.00;38.50;;;;;;5016908;28;20389;-72
2022/09/12 09:20:27;;;;;;;22.17;14.68;;;20.80;39.00;;;;;;5031785;28;20402;-73
2022/09/12 09:23:07;;;;;;;20.55;13.55;;;20.60;39.50;;;;;;5036365;28;20414;-74
2022/09/12 09:25:58;;;;;;;23.00;14.18;;;20.50;40.50;;;;;;5035924;28;20387;-71
2022/09/12 09:28:41;;;;;;;19.58;13.50;;;20.40;42.60;;;;;;5036059;28;20437;-71
2022/09/12 09:31:21;;;;;;;24.58;14.52;;;20.30;42.10;;;;;;5016435;28;20401;-72
2022/09/12 09:33:50;;;;;;;20.85;13.85;;;20.40;43.40;;;;;;5016209;28;20393;-71
2022/09/12 09:36:35;;;;;;;16.70;12.57;;;20.60;41.10;;;;;;5015509;28;21017;-72
2022/09/12 09:39:07;;;;;;;16.08;11.05;;;20.80;40.30;;;;;;5022497;28;20422;-73
2022/09/12 09:41:36;;;;;;;21.95;11.60;;;21.00;40.80;;;;;;5037556;28;20390;-71
2022/09/12 09:44:02;;;;;;;17.13;11.90;;;21.20;37.70;;;;;;5031531;28;20592;-72
2022/09/12 09:46:28;;;;;;;19.30;10.68;;;21.20;36.50;;;;;;5000226;28;20400;-69
2022/09/12 09:48:57;;;;;;;23.33;12.40;;;21.20;36.60;;;;;;5017486;28;20405;-72
2022/09/12 09:51:32;;;;;;;13.80;10.30;;;21.50;36.40;;;;;;5015738;28;20897;-73
2022/09/12 09:54:04;;;;;;;17.33;10.25;;;21.60;36.30;;;;;;5033093;22;20391;-72
2022/09/12 09:56:33;;;;;;;19.85;10.77;;;21.70;34.80;;;;;;5071461;28;20395;-72
2022/09/12 09:59:18;;;;;;;14.93;10.90;;;21.70;34.40;;;;;;5078645;28;20407;-73
2022/09/12 10:02:12;;;;;;;18.38;10.00;;;21.70;33.90;;;;;;5051804;28;20391;-72
2022/09/12 10:04:40;;;;;;;13.93;9.52;;;21.60;34.60;;;;;;5062327;28;20404;-72
2022/09/12 10:07:16;;;;;;;16.00;11.05;;;21.70;34.20;;;;;;5050860;28;20877;-72
2022/09/12 10:09:42;;;;;;;12.90;10.17;;;21.80;34.40;;;;;;5049973;28;20493;-74
2022/09/12 10:12:27;;;;;;;12.93;9.07;;;21.80;33.40;;;;;;5050579;28;20397;-73
2022/09/12 10:14:58;;;;;;;11.77;8.75;;;21.80;32.80;;;;;;5050731;28;20454;-72
2022/09/12 10:17:30;;;;;;;16.93;10.77;;;21.90;32.60;;;;;;5049826;28;21022;-72
2022/09/12 10:19:57;;;;;;;14.40;10.38;;;22.10;32.80;;;;;;5049724;28;20462;-73
2022/09/12 10:22:26;;;;;;;12.38;7.85;;;22.10;31.90;;;;;;5050053;28;20450;-73
2022/09/12 10:24:58;;;;;;;14.05;9.55;;;22.00;31.20;;;;;;5065168;28;20398;-72
2022/09/12 10:27:25;;;;;;;12.95;9.20;;;22.10;31.60;;;;;;5049889;28;20389;-73
2022/09/12 10:30:14;;;;;;;11.73;8.57;;;22.20;31.20;;;;;;5049680;28;20642;-73
2022/09/12 10:32:44;;;;;;;12.85;9.85;;;22.20;30.90;;;;;;5050060;28;20417;-72
2022/09/12 10:35:22;;;;;;;13.68;8.52;;;22.30;30.00;;;;;;5050456;28;20714;-73
2022/09/12 10:38:03;;;;;;;8.97;7.47;;;22.40;29.90;;;;;;5053260;28;20733;-72
2022/09/12 10:40:35;;;;;;;8.38;6.97;;;22.50;29.40;;;;;;5063406;28;20401;-74
2022/09/12 10:43:04;;;;;;;10.10;8.40;;;22.50;27.90;;;;;;5065990;28;20389;-72
2022/09/12 10:45:36;;;;;;;18.20;9.97;;;22.50;28.80;;;;;;5063496;28;20417;-71
2022/09/12 10:48:27;;;;;;;13.57;7.60;;;22.70;28.00;;;;;;5052077;28;20405;-71
2022/09/12 10:50:52;;;;;;;7.55;6.38;;;22.90;27.00;;;;;;5050307;28;20386;-73
2022/09/12 10:53:22;;;;;;;6.90;6.20;;;23.00;26.90;;;;;;5049575;28;20397;-73
2022/09/12 10:56:09;;;;;;;12.27;7.50;;;23.10;26.00;;;;;;5050476;28;20829;-75
2022/09/12 10:58:56;;;;;;;8.13;6.83;;;23.10;26.30;;;;;;5049420;28;20448;-73
2022/09/12 11:01:47;;;;;;;10.63;7.20;;;23.10;23.90;;;;;;5051321;28;20396;-73
2022/09/12 11:04:34;;;;;;;8.35;5.53;;;23.20;23.90;;;;;;5051278;28;20543;-73
2022/09/12 11:07:23;;;;;;;15.65;10.68;;;23.20;23.50;;;;;;5051098;28;20382;-72
2022/09/12 11:10:10;;;;;;;7.32;6.22;;;23.20;24.90;;;;;;5066384;28;20458;-73
2022/09/12 11:12:52;;;;;;;9.23;5.87;;;23.30;25.50;;;;;;5050695;28;20401;-72
2022/09/12 11:15:36;;;;;;;8.07;5.50;;;23.40;23.80;;;;;;5051448;28;20392;-72
2022/09/12 11:18:39;;;;;;;7.45;4.32;;;23.60;22.30;;;;;;5050531;28;20416;-73
2022/09/12 11:21:23;;;;;;;7.60;4.73;;;23.60;21.10;;;;;;5050468;28;20432;-73
2022/09/12 11:24:04;;;;;;;7.43;4.82;;;23.60;20.40;;;;;;5051053;28;20888;-73
2022/09/12 11:27:09;;;;;;;8.87;5.00;;;23.70;20.00;;;;;;5051152;28;20392;-73
2022/09/12 11:29:37;;;;;;;16.45;6.60;;;23.60;20.60;;;;;;5043460;28;20401;-74
2022/09/12 11:32:21;;;;;;;20.52;11.90;;;23.70;21.30;;;;;;5054661;28;20381;-71
2022/09/12 11:34:54;;;;;;;8.15;6.00;;;23.70;21.00;;;;;;5054197;28;20454;-72
2022/09/12 11:37:35;;;;;;;9.23;5.32;;;23.90;19.50;;;;;;5056695;28;20409;-72
2022/09/12 11:40:19;;;;;;;5.45;4.55;;;23.90;18.70;;;;;;5056399;28;20396;-72
2022/09/12 11:42:47;;;;;;;7.45;4.78;;;24.00;18.80;;;;;;5055191;28;20407;-72
2022/09/12 11:45:18;;;;;;;4.53;4.13;;;23.90;18.50;;;;;;5054865;28;20385;-72
2022/09/12 11:47:49;;;;;;;4.95;4.30;;;24.00;17.70;;;;;;5054645;28;20397;-73
2022/09/12 11:50:22;;;;;;;4.40;3.50;;;24.00;17.70;;;;;;5053960;28;20518;-73
2022/09/12 11:52:49;;;;;;;6.80;4.70;;;23.90;17.50;;;;;;5059104;28;20403;-73
2022/09/12 11:55:20;;;;;;;4.72;4.25;;;24.00;17.90;;;;;;5054233;28;20873;-73
2022/09/12 11:57:55;;;;;;;13.57;5.28;;;24.10;16.00;;;;;;5055219;28;20386;-72
2022/09/12 12:00:48;;;;;;;5.00;3.13;;;24.10;16.20;;;;;;5053205;28;20419;-72
2022/09/12 12:03:22;;;;;;;5.97;3.40;;;24.20;15.30;;;;;;5035332;28;20393;-72
2022/09/12 12:06:03;;;;;;;4.13;3.30;;;24.20;15.60;;;;;;5067600;28;20507;-72
2022/09/12 12:08:30;;;;;;;4.55;3.65;;;24.30;16.10;;;;;;5074338;28;20404;-73
2022/09/12 12:11:01;;;;;;;5.22;4.40;;;24.40;16.40;;;;;;5042734;28;20391;-73
2022/09/12 12:13:46;;;;;;;9.50;4.20;;;24.50;16.70;;;;;;5051577;28;20422;-73
2022/09/12 12:16:40;;;;;;;4.50;4.00;;;24.50;15.60;;;;;;5062438;28;20412;-73
2022/09/12 12:19:14;;;;;;;13.95;5.00;;;24.60;16.20;;;;;;5054666;28;20432;-72
2022/09/12 12:21:44;;;;;;;5.88;4.15;;;24.60;16.10;;;;;;5054537;28;20392;-73
2022/09/12 12:24:20;;;;;;;4.53;4.03;;;24.70;15.70;;;;;;5054146;28;20507;-73
2022/09/12 12:26:51;;;;;;;5.10;3.53;;;24.80;15.20;;;;;;5035910;28;20955;-73
2022/09/12 12:29:16;;;;;;;8.43;4.40;;;24.80;15.50;;;;;;5050793;28;20471;-73
2022/09/12 12:31:57;;;;;;;6.57;4.23;;;24.90;15.50;;;;;;5045312;28;20408;-73
2022/09/12 12:34:26;;;;;;;5.20;4.20;;;24.80;15.30;;;;;;5054150;28;20390;-73
2022/09/12 12:36:52;;;;;;;6.30;4.90;;;24.90;15.50;;;;;;5053959;28;20707;-74
2022/09/12 12:39:32;;;;;;;11.63;4.40;;;25.00;15.50;;;;;;5057746;28;20384;-72
2022/09/12 12:41:59;;;;;;;6.07;4.00;;;25.00;14.50;;;;;;5057070;28;20408;-74
2022/09/12 12:44:43;;;;;;;8.50;4.83;;;25.00;14.60;;;;;;5053226;28;20425;-73
2022/09/12 12:47:21;;;;;;;9.57;5.45;;;25.00;14.90;;;;;;5051282;28;20795;-72
2022/09/12 12:50:01;;;;;;;9.27;4.93;;;25.10;14.30;;;;;;5053420;28;20393;-73
2022/09/12 12:52:44;;;;;;;6.30;5.32;;;25.10;14.60;;;;;;5053575;28;20385;-73
2022/09/12 12:55:15;;;;;;;10.10;5.13;;;25.20;14.70;;;;;;5051828;28;20405;-74
2022/09/12 12:57:52;;;;;;;5.85;4.45;;;25.30;13.80;;;;;;5053884;28;20564;-75